createdAt,value
2023-04-21T00:03:26.526Z,13.70
2023-04-21T00:07:30.556Z,13.45
2023-04-21T00:11:32.254Z,13.27
2023-04-21T00:15:33.926Z,14.55
2023-04-21T00:19:35.823Z,13.93
2023-04-21T00:23:37.608Z,14.15
2023-04-21T00:27:39.355Z,16.27
2023-04-21T00:31:41.217Z,14.60
2023-04-21T00:35:42.984Z,14.70
2023-04-21T00:39:44.794Z,17.17
2023-04-21T00:44:07.222Z,17.63
2023-04-21T00:48:09.094Z,14.15
2023-04-21T00:52:11.985Z,15.25
2023-04-21T00:56:13.816Z,14.68
2023-04-21T01:00:16.698Z,15.07
2023-04-21T01:04:18.532Z,13.63
2023-04-21T01:08:20.621Z,15.00
2023-04-21T01:12:22.314Z,14.25
2023-04-21T01:16:24.697Z,15.73
2023-04-21T01:20:26.550Z,14.73
2023-04-21T01:24:45.363Z,17.05
2023-04-21T01:28:48.743Z,16.13
2023-04-21T01:32:50.518Z,16.35
2023-04-21T01:36:52.223Z,15.93
2023-04-21T01:40:54.938Z,15.45
2023-04-21T01:44:56.899Z,16.23
2023-04-21T01:48:58.585Z,15.65
2023-04-21T01:53:00.280Z,16.17
2023-04-21T01:57:02.592Z,15.23
2023-04-21T02:01:04.461Z,16.40
2023-04-21T02:05:06.537Z,15.60
2023-04-21T02:09:08.246Z,15.82
2023-04-21T02:13:09.913Z,15.15
2023-04-21T02:17:11.819Z,17.17
2023-04-21T02:21:13.453Z,15.90
2023-04-21T02:25:15.137Z,15.48
2023-04-21T02:29:16.985Z,15.85
2023-04-21T02:33:18.727Z,15.35
2023-04-21T02:37:21.065Z,16.38
2023-04-21T02:41:23.267Z,16.30
2023-04-21T02:45:25.496Z,15.43
2023-04-21T02:49:27.188Z,17.43
2023-04-21T02:53:28.996Z,17.35
2023-04-21T02:57:30.705Z,17.88
2023-04-21T03:01:32.361Z,17.85
2023-04-21T03:05:34.107Z,16.25
2023-04-21T03:09:35.959Z,17.02
2023-04-21T03:13:37.657Z,17.40
2023-04-21T03:17:39.534Z,16.40
2023-04-21T03:21:41.215Z,16.70
2023-04-21T03:25:43.131Z,17.33
2023-04-21T03:29:44.926Z,17.10
2023-04-21T03:33:46.592Z,16.63
2023-04-21T03:37:49.714Z,16.60
2023-04-21T03:45:53.453Z,17.42
2023-04-21T03:49:55.139Z,18.35
2023-04-21T03:53:56.805Z,18.05
2023-04-21T03:57:58.514Z,19.30
2023-04-21T04:02:00.352Z,18.15
2023-04-21T04:06:04.033Z,18.75
2023-04-21T04:10:06.068Z,16.85
2023-04-21T04:14:08.847Z,19.17
2023-04-21T04:18:10.568Z,18.13
2023-04-21T04:22:12.352Z,17.88
2023-04-21T04:26:14.135Z,18.90
2023-04-21T04:30:16.663Z,19.27
2023-04-21T04:34:18.702Z,20.38
2023-04-21T04:38:20.695Z,18.75
2023-04-21T04:42:22.553Z,19.15
2023-04-21T04:46:24.871Z,19.08
2023-04-21T04:50:27.061Z,18.77
2023-04-21T04:54:29.251Z,18.25
2023-04-21T04:58:30.950Z,17.67
2023-04-21T05:02:33.200Z,16.77
2023-04-21T05:06:35.140Z,16.20
2023-04-21T05:10:36.859Z,16.95
2023-04-21T05:14:38.611Z,15.88
2023-04-21T05:18:40.709Z,15.70
2023-04-21T05:22:42.491Z,15.43
2023-04-21T05:26:44.895Z,15.88
2023-04-21T05:30:46.555Z,19.07
2023-04-21T05:34:48.241Z,18.85
2023-04-21T05:38:49.952Z,17.23
2023-04-21T05:42:51.673Z,16.23
2023-04-21T05:46:53.367Z,17.27
2023-04-21T05:50:55.836Z,17.55
2023-04-21T05:54:59.686Z,19.03
2023-04-21T05:59:01.492Z,18.23
2023-04-21T06:03:03.553Z,15.80
2023-04-21T06:07:07.105Z,16.10
2023-04-21T06:11:09.106Z,14.82
2023-04-21T06:15:10.966Z,15.82
2023-04-21T06:19:12.692Z,16.98
2023-04-21T06:23:14.584Z,15.98
2023-04-21T06:27:16.729Z,16.13
2023-04-21T06:31:19.797Z,16.42
2023-04-21T06:39:23.799Z,15.05
2023-04-21T06:43:25.608Z,14.52
2023-04-21T06:47:27.739Z,13.60
2023-04-21T06:51:29.619Z,16.20
2023-04-21T06:55:31.397Z,14.10
2023-04-21T06:59:34.475Z,13.82
2023-04-21T07:03:36.569Z,13.25
2023-04-21T07:07:38.474Z,14.80
2023-04-21T07:11:40.450Z,13.50
2023-04-21T07:15:42.196Z,13.05
2023-04-21T07:19:44.015Z,12.85
2023-04-21T07:23:45.779Z,12.32
2023-04-21T07:27:47.584Z,13.90
2023-04-21T07:31:49.542Z,13.57
2023-04-21T07:35:51.311Z,13.73
2023-04-21T07:39:53.030Z,11.93
2023-04-21T07:43:56.167Z,11.65
2023-04-21T07:51:59.604Z,11.23
2023-04-21T07:56:01.442Z,11.63
2023-04-21T08:00:03.561Z,11.00
2023-04-21T08:04:05.645Z,12.20
2023-04-21T08:08:07.801Z,9.87
2023-04-21T08:12:09.587Z,9.60
2023-04-21T08:16:11.672Z,10.48
2023-04-21T08:20:13.916Z,10.05
2023-04-21T08:24:15.719Z,10.30
2023-04-21T08:28:17.483Z,7.85
2023-04-21T08:32:23.522Z,7.22
2023-04-21T08:36:29.586Z,7.65
2023-04-21T08:40:37.889Z,6.82
2023-04-21T08:44:41.554Z,9.73
2023-04-21T08:48:43.290Z,7.32
2023-04-21T08:52:45.061Z,6.68
2023-04-21T08:56:49.247Z,7.43
2023-04-21T09:00:51.284Z,5.50
2023-04-21T09:04:55.248Z,5.30
2023-04-21T09:08:57.492Z,4.85
2023-04-21T09:13:06.799Z,6.00
2023-04-21T09:17:08.578Z,4.70
2023-04-21T09:21:12.813Z,4.93
2023-04-21T09:25:20.352Z,5.03
2023-04-21T09:29:26.207Z,4.93
2023-04-21T09:33:34.408Z,5.20
2023-04-21T09:37:44.313Z,5.13
2023-04-21T09:41:46.581Z,4.68
2023-04-21T09:45:49.806Z,3.97
2023-04-21T09:49:52.359Z,3.65
2023-04-21T09:53:59.692Z,4.35
2023-04-21T09:58:06.637Z,3.83
2023-04-21T10:02:09.771Z,3.88
2023-04-21T10:06:12.187Z,3.53
2023-04-21T10:10:28.532Z,4.10
2023-04-21T10:14:30.313Z,3.75
2023-04-21T10:18:32.085Z,3.33
2023-04-21T10:22:34.686Z,3.95
2023-04-21T10:26:36.393Z,3.90
2023-04-21T10:30:38.208Z,4.03
2023-04-21T10:34:40.596Z,3.42
2023-04-21T10:38:43.698Z,3.40
2023-04-21T10:42:45.410Z,2.92
2023-04-21T10:46:48.697Z,3.17
2023-04-21T10:50:50.593Z,2.78
2023-04-21T10:54:59.524Z,4.30
2023-04-21T10:59:01.293Z,3.40
2023-04-21T11:03:04.612Z,3.15
2023-04-21T11:07:12.256Z,2.85
2023-04-21T11:11:23.969Z,2.80
2023-04-21T11:15:25.890Z,3.90
2023-04-21T11:19:28.011Z,3.20
2023-04-21T11:23:29.989Z,3.27
2023-04-21T11:27:31.807Z,2.78
2023-04-21T11:31:34.048Z,3.67
2023-04-21T11:35:40.822Z,3.35
2023-04-21T11:39:43.916Z,2.67
2023-04-21T11:43:46.556Z,3.10
2023-04-21T11:47:48.849Z,3.10
2023-04-21T11:51:50.678Z,4.28
2023-04-21T11:55:52.489Z,3.42
2023-04-21T11:59:54.637Z,3.50
2023-04-21T12:03:57.037Z,4.23
2023-04-21T12:07:58.851Z,5.18
2023-04-21T12:12:04.530Z,4.63
2023-04-21T12:16:07.367Z,4.18
2023-04-21T12:24:11.440Z,5.65
2023-04-21T12:28:17.151Z,3.72
2023-04-21T12:32:18.944Z,3.35
2023-04-21T12:36:21.318Z,4.65
2023-04-21T12:40:23.156Z,8.23
2023-04-21T12:44:25.788Z,2.92
2023-04-21T12:48:27.644Z,3.45
2023-04-21T12:52:29.300Z,3.92
2023-04-21T12:56:31.658Z,3.30
2023-04-21T13:00:35.813Z,3.00
2023-04-21T13:04:39.164Z,3.40
2023-04-21T13:08:41.001Z,4.20
2023-04-21T13:12:42.711Z,3.17
2023-04-21T13:16:44.486Z,3.30
2023-04-21T13:20:46.987Z,2.97
2023-04-21T13:24:48.710Z,2.80
2023-04-21T13:28:50.661Z,2.75
2023-04-21T13:32:52.549Z,3.07
2023-04-21T13:36:54.895Z,4.37
2023-04-21T13:40:57.343Z,5.03
2023-04-21T13:44:59.242Z,4.25
2023-04-21T13:49:00.984Z,2.70
2023-04-21T13:53:02.638Z,3.40
2023-04-21T13:57:05.340Z,2.80
2023-04-21T14:05:09.098Z,3.38
2023-04-21T14:09:11.902Z,3.15
2023-04-21T14:13:26.857Z,2.65
2023-04-21T14:17:35.229Z,2.58
2023-04-21T14:21:37.028Z,3.15
2023-04-21T14:25:38.740Z,2.28
2023-04-21T14:29:40.804Z,2.95
2023-04-21T14:33:42.461Z,2.20
2023-04-21T14:37:44.154Z,2.90
2023-04-21T14:41:45.965Z,2.75
2023-04-21T14:45:48.409Z,2.85
2023-04-21T14:49:55.020Z,3.38
2023-04-21T14:53:57.006Z,3.30
2023-04-21T14:57:58.863Z,3.13
2023-04-21T15:02:00.993Z,2.70
2023-04-21T15:06:03.921Z,2.80
2023-04-21T15:10:06.627Z,1.90
2023-04-21T15:14:08.403Z,1.90
2023-04-21T15:18:10.405Z,1.88
2023-04-21T15:22:12.640Z,1.33
2023-04-21T15:26:14.401Z,1.53
2023-04-21T15:30:16.259Z,1.90
2023-04-21T15:34:18.120Z,2.05
2023-04-21T15:38:21.133Z,1.95
2023-04-21T15:42:24.200Z,1.88
2023-04-21T15:46:25.933Z,2.03
2023-04-21T15:50:29.996Z,1.73
2023-04-21T15:54:34.171Z,1.80
2023-04-21T15:58:36.526Z,1.88
2023-04-21T16:02:38.859Z,1.50
2023-04-21T16:06:40.759Z,1.20
2023-04-21T16:10:42.516Z,1.23
2023-04-21T16:14:56.026Z,1.92
2023-04-21T16:19:03.354Z,2.17
2023-04-21T16:23:05.244Z,2.25
2023-04-21T16:27:07.001Z,2.00
2023-04-21T16:31:08.748Z,1.85
2023-04-21T16:35:11.383Z,1.42
2023-04-21T16:39:14.479Z,2.10
2023-04-21T16:43:16.456Z,2.17
2023-04-21T16:47:18.245Z,1.97
2023-04-21T16:51:19.986Z,1.92
2023-04-21T16:55:23.053Z,1.90
2023-04-21T16:59:24.762Z,2.40
2023-04-21T17:03:29.070Z,1.52
2023-04-21T17:07:34.610Z,2.10
2023-04-21T17:11:38.167Z,2.03
2023-04-21T17:15:42.016Z,3.42
2023-04-21T17:19:43.732Z,2.60
2023-04-21T17:23:45.706Z,1.50
2023-04-21T17:27:47.772Z,2.33
2023-04-21T17:31:49.574Z,2.63
2023-04-21T17:36:02.562Z,2.17
2023-04-21T17:40:07.363Z,1.90
2023-04-21T17:44:09.071Z,1.80
2023-04-21T17:48:11.015Z,2.47
2023-04-21T17:52:14.156Z,3.17
2023-04-21T17:56:18.840Z,2.03
2023-04-21T18:00:20.676Z,1.17
2023-04-21T18:04:24.726Z,1.75
2023-04-21T18:08:26.854Z,1.90
2023-04-21T18:12:28.534Z,1.20
2023-04-21T18:16:30.531Z,1.35
2023-04-21T18:20:32.678Z,2.90
2023-04-21T18:24:34.861Z,1.67
2023-04-21T18:28:36.705Z,1.20
2023-04-21T18:32:39.886Z,1.30
2023-04-21T18:36:42.951Z,1.27
2023-04-21T18:44:46.969Z,1.52
2023-04-21T18:48:48.640Z,1.50
2023-04-21T18:52:50.291Z,1.40
2023-04-21T18:56:52.009Z,1.80
2023-04-21T19:00:53.717Z,1.40
2023-04-21T19:04:55.479Z,2.05
2023-04-21T19:08:57.658Z,1.42
2023-04-21T19:12:59.331Z,1.57
2023-04-21T19:17:01.112Z,1.98
2023-04-21T19:21:04.459Z,1.80
2023-04-21T19:25:08.030Z,1.50
2023-04-21T19:29:12.210Z,1.70
2023-04-21T19:33:14.024Z,1.90
2023-04-21T19:37:15.909Z,2.15
2023-04-21T19:41:17.559Z,2.13
2023-04-21T19:45:29.192Z,1.70
2023-04-21T19:49:30.892Z,1.60
2023-04-21T19:53:32.574Z,2.70
2023-04-21T19:57:34.392Z,2.00
2023-04-21T20:01:36.664Z,2.10
2023-04-21T20:05:38.396Z,2.10
2023-04-21T20:09:40.438Z,2.00
2023-04-21T20:13:42.372Z,2.77
2023-04-21T20:17:47.274Z,2.20
2023-04-21T20:21:52.361Z,2.90
2023-04-21T20:25:54.088Z,2.85
2023-04-21T20:29:56.489Z,3.10
2023-04-21T20:33:59.509Z,3.55
2023-04-21T20:38:05.565Z,3.10
2023-04-21T20:42:12.994Z,4.07
2023-04-21T20:46:16.849Z,4.13
2023-04-21T20:54:20.477Z,4.13
2023-04-21T20:58:22.374Z,4.30
2023-04-21T21:02:24.465Z,4.00
2023-04-21T21:06:26.540Z,4.13
2023-04-21T21:10:28.259Z,4.13
2023-04-21T21:14:29.892Z,4.25
2023-04-21T21:18:34.542Z,3.78
2023-04-21T21:22:36.364Z,4.25
2023-04-21T21:26:42.712Z,4.53
2023-04-21T21:30:45.268Z,4.85
2023-04-21T21:34:47.131Z,5.37
2023-04-21T21:38:48.803Z,5.07
2023-04-21T21:42:51.428Z,4.20
2023-04-21T21:46:53.112Z,4.88
2023-04-21T21:50:54.841Z,4.68
2023-04-21T21:54:58.287Z,4.68
2023-04-21T21:58:59.954Z,4.95
2023-04-21T22:03:01.733Z,4.93
2023-04-21T22:07:03.668Z,5.18
2023-04-21T22:11:05.877Z,5.80
2023-04-21T22:15:15.033Z,5.30
2023-04-21T22:19:20.238Z,5.72
2023-04-21T22:23:21.940Z,5.30
2023-04-21T22:27:23.599Z,5.15
2023-04-21T22:31:25.603Z,5.70
2023-04-21T22:35:27.402Z,5.75
2023-04-21T22:39:29.204Z,6.10
2023-04-21T22:43:30.984Z,6.22
2023-04-21T22:47:33.421Z,5.38
2023-04-21T22:51:36.231Z,5.43
2023-04-21T22:55:37.979Z,4.95
2023-04-21T22:59:40.104Z,5.57
2023-04-21T23:03:42.187Z,5.53
2023-04-21T23:07:43.925Z,5.90
2023-04-21T23:11:45.641Z,6.15
2023-04-21T23:15:47.373Z,6.03
2023-04-21T23:19:49.076Z,5.30
2023-04-21T23:23:50.922Z,5.45
2023-04-21T23:27:52.669Z,5.25
2023-04-21T23:31:54.488Z,5.30
2023-04-21T23:35:56.275Z,6.20
2023-04-21T23:39:57.963Z,5.30
2023-04-21T23:43:59.743Z,5.47
2023-04-21T23:48:01.430Z,5.53
2023-04-21T23:52:03.217Z,5.63
2023-04-21T23:56:05.347Z,5.72
